sensor_id;sensor_type;location;lat;lon;timestamp;P1;durP1;ratioP1;P2;durP2;ratioP2
28802;SDS011;15949;55.656;37.422;2022-12-18T00:02:20;25.38;;;14.45;;
28802;SDS011;15949;55.656;37.422;2022-12-18T00:07:27;25.15;;;14.93;;
28802;SDS011;15949;55.656;37.422;2022-12-18T00:12:32;23.70;;;14.10;;
28802;SDS011;15949;55.656;37.422;2022-12-18T00:17:38;24.35;;;14.18;;
28802;SDS011;15949;55.656;37.422;2022-12-18T00:22:44;22.02;;;13.35;;
28802;SDS011;15949;55.656;37.422;2022-12-18T00:27:49;21.92;;;12.65;;
28802;SDS011;15949;55.656;37.422;2022-12-18T00:32:55;20.42;;;12.27;;
28802;SDS011;15949;55.656;37.422;2022-12-18T00:38:01;22.45;;;12.00;;
28802;SDS011;15949;55.656;37.422;2022-12-18T00:43:07;20.48;;;12.60;;
28802;SDS011;15949;55.656;37.422;2022-12-18T00:48:12;20.33;;;12.10;;
28802;SDS011;15949;55.656;37.422;2022-12-18T00:53:18;16.60;;;10.02;;
28802;SDS011;15949;55.656;37.422;2022-12-18T00:58:24;21.92;;;12.98;;
28802;SDS011;15949;55.656;37.422;2022-12-18T01:03:29;22.42;;;12.30;;
28802;SDS011;15949;55.656;37.422;2022-12-18T01:08:36;20.95;;;12.30;;
28802;SDS011;15949;55.656;37.422;2022-12-18T01:13:41;21.98;;;12.30;;
28802;SDS011;15949;55.656;37.422;2022-12-18T01:18:50;23.52;;;12.45;;
28802;SDS011;15949;55.656;37.422;2022-12-18T01:29:03;23.55;;;13.07;;
28802;SDS011;15949;55.656;37.422;2022-12-18T01:34:09;20.77;;;12.85;;
28802;SDS011;15949;55.656;37.422;2022-12-18T01:39:15;20.52;;;11.73;;
28802;SDS011;15949;55.656;37.422;2022-12-18T01:50:06;22.17;;;12.70;;
28802;SDS011;15949;55.656;37.422;2022-12-18T01:55:13;17.40;;;11.25;;
28802;SDS011;15949;55.656;37.422;2022-12-18T02:00:22;19.10;;;11.38;;
28802;SDS011;15949;55.656;37.422;2022-12-18T02:05:33;18.83;;;11.07;;
28802;SDS011;15949;55.656;37.422;2022-12-18T02:10:54;20.95;;;12.30;;
28802;SDS011;15949;55.656;37.422;2022-12-18T02:21:39;18.58;;;11.45;;
28802;SDS011;15949;55.656;37.422;2022-12-18T02:26:50;23.10;;;13.23;;
28802;SDS011;15949;55.656;37.422;2022-12-18T02:32:00;27.40;;;15.15;;
28802;SDS011;15949;55.656;37.422;2022-12-18T02:37:11;21.13;;;13.27;;
28802;SDS011;15949;55.656;37.422;2022-12-18T02:42:19;23.05;;;14.05;;
28802;SDS011;15949;55.656;37.422;2022-12-18T02:47:27;23.58;;;14.75;;
28802;SDS011;15949;55.656;37.422;2022-12-18T02:58:04;20.70;;;13.48;;
28802;SDS011;15949;55.656;37.422;2022-12-18T03:08:39;27.88;;;15.30;;
28802;SDS011;15949;55.656;37.422;2022-12-18T03:13:50;24.40;;;14.25;;
28802;SDS011;15949;55.656;37.422;2022-12-18T03:19:01;22.13;;;12.25;;
28802;SDS011;15949;55.656;37.422;2022-12-18T03:24:12;20.83;;;12.45;;
28802;SDS011;15949;55.656;37.422;2022-12-18T03:29:24;21.10;;;13.60;;
28802;SDS011;15949;55.656;37.422;2022-12-18T03:34:35;15.77;;;10.15;;
28802;SDS011;15949;55.656;37.422;2022-12-18T03:39:43;19.83;;;12.45;;
28802;SDS011;15949;55.656;37.422;2022-12-18T03:50:08;18.15;;;11.77;;
28802;SDS011;15949;55.656;37.422;2022-12-18T03:55:25;15.60;;;10.30;;
28802;SDS011;15949;55.656;37.422;2022-12-18T04:00:36;16.80;;;9.38;;
28802;SDS011;15949;55.656;37.422;2022-12-18T04:05:42;17.25;;;9.57;;
28802;SDS011;15949;55.656;37.422;2022-12-18T04:10:49;13.55;;;8.70;;
28802;SDS011;15949;55.656;37.422;2022-12-18T04:15:54;14.52;;;9.15;;
28802;SDS011;15949;55.656;37.422;2022-12-18T04:21:00;14.75;;;9.07;;
28802;SDS011;15949;55.656;37.422;2022-12-18T04:26:07;15.48;;;9.07;;
28802;SDS011;15949;55.656;37.422;2022-12-18T04:31:12;14.57;;;8.80;;
28802;SDS011;15949;55.656;37.422;2022-12-18T04:36:18;14.13;;;9.45;;
28802;SDS011;15949;55.656;37.422;2022-12-18T04:41:24;15.07;;;9.35;;
28802;SDS011;15949;55.656;37.422;2022-12-18T04:46:30;15.40;;;9.50;;
28802;SDS011;15949;55.656;37.422;2022-12-18T04:51:36;14.48;;;8.82;;
28802;SDS011;15949;55.656;37.422;2022-12-18T04:56:42;15.88;;;9.10;;
28802;SDS011;15949;55.656;37.422;2022-12-18T05:01:48;16.83;;;9.00;;
28802;SDS011;15949;55.656;37.422;2022-12-18T05:06:53;14.20;;;8.38;;
28802;SDS011;15949;55.656;37.422;2022-12-18T05:11:59;17.23;;;9.25;;
28802;SDS011;15949;55.656;37.422;2022-12-18T05:17:05;15.32;;;9.38;;
28802;SDS011;15949;55.656;37.422;2022-12-18T05:22:11;15.77;;;8.90;;
28802;SDS011;15949;55.656;37.422;2022-12-18T05:27:17;13.07;;;8.50;;
28802;SDS011;15949;55.656;37.422;2022-12-18T05:32:24;14.52;;;8.40;;
28802;SDS011;15949;55.656;37.422;2022-12-18T05:37:30;13.88;;;8.65;;
28802;SDS011;15949;55.656;37.422;2022-12-18T05:42:35;14.32;;;8.93;;
28802;SDS011;15949;55.656;37.422;2022-12-18T05:47:41;15.73;;;8.40;;
28802;SDS011;15949;55.656;37.422;2022-12-18T05:52:47;14.80;;;8.35;;
28802;SDS011;15949;55.656;37.422;2022-12-18T05:57:52;16.40;;;9.43;;
28802;SDS011;15949;55.656;37.422;2022-12-18T06:02:58;16.00;;;9.77;;
28802;SDS011;15949;55.656;37.422;2022-12-18T06:08:04;17.98;;;9.30;;
28802;SDS011;15949;55.656;37.422;2022-12-18T06:13:10;14.10;;;9.32;;
28802;SDS011;15949;55.656;37.422;2022-12-18T06:18:16;18.60;;;9.63;;
28802;SDS011;15949;55.656;37.422;2022-12-18T06:23:22;16.88;;;9.07;;
28802;SDS011;15949;55.656;37.422;2022-12-18T06:28:28;16.35;;;9.00;;
28802;SDS011;15949;55.656;37.422;2022-12-18T06:33:33;15.30;;;9.23;;
28802;SDS011;15949;55.656;37.422;2022-12-18T06:38:41;15.57;;;9.40;;
28802;SDS011;15949;55.656;37.422;2022-12-18T06:43:48;13.15;;;8.52;;
28802;SDS011;15949;55.656;37.422;2022-12-18T06:48:54;13.65;;;8.15;;
28802;SDS011;15949;55.656;37.422;2022-12-18T06:53:59;13.27;;;7.90;;
28802;SDS011;15949;55.656;37.422;2022-12-18T06:59:05;13.48;;;7.68;;
28802;SDS011;15949;55.656;37.422;2022-12-18T07:04:11;13.48;;;7.55;;
28802;SDS011;15949;55.656;37.422;2022-12-18T07:09:16;14.60;;;7.35;;
28802;SDS011;15949;55.656;37.422;2022-12-18T07:14:22;16.10;;;8.30;;
28802;SDS011;15949;55.656;37.422;2022-12-18T07:19:28;11.13;;;6.63;;
28802;SDS011;15949;55.656;37.422;2022-12-18T07:24:34;13.07;;;8.27;;
28802;SDS011;15949;55.656;37.422;2022-12-18T07:29:40;12.57;;;7.63;;
28802;SDS011;15949;55.656;37.422;2022-12-18T07:34:46;16.55;;;7.80;;
28802;SDS011;15949;55.656;37.422;2022-12-18T07:39:52;13.77;;;7.63;;
28802;SDS011;15949;55.656;37.422;2022-12-18T07:44:58;16.60;;;8.07;;
28802;SDS011;15949;55.656;37.422;2022-12-18T07:50:05;11.88;;;7.70;;
28802;SDS011;15949;55.656;37.422;2022-12-18T07:55:11;12.48;;;7.70;;
28802;SDS011;15949;55.656;37.422;2022-12-18T08:00:16;14.25;;;8.50;;
28802;SDS011;15949;55.656;37.422;2022-12-18T08:05:22;13.73;;;7.63;;
28802;SDS011;15949;55.656;37.422;2022-12-18T08:10:28;12.57;;;7.60;;
28802;SDS011;15949;55.656;37.422;2022-12-18T08:15:33;15.68;;;8.32;;
28802;SDS011;15949;55.656;37.422;2022-12-18T08:20:39;11.10;;;7.53;;
28802;SDS011;15949;55.656;37.422;2022-12-18T08:25:47;15.17;;;8.13;;
28802;SDS011;15949;55.656;37.422;2022-12-18T08:30:53;11.77;;;7.15;;
28802;SDS011;15949;55.656;37.422;2022-12-18T08:35:59;15.20;;;7.97;;
28802;SDS011;15949;55.656;37.422;2022-12-18T08:41:06;13.98;;;8.65;;
28802;SDS011;15949;55.656;37.422;2022-12-18T08:46:13;12.65;;;7.63;;
28802;SDS011;15949;55.656;37.422;2022-12-18T08:51:19;11.38;;;7.20;;
28802;SDS011;15949;55.656;37.422;2022-12-18T08:56:24;13.18;;;7.72;;
28802;SDS011;15949;55.656;37.422;2022-12-18T09:01:30;12.45;;;7.60;;
28802;SDS011;15949;55.656;37.422;2022-12-18T09:06:35;12.52;;;7.75;;
28802;SDS011;15949;55.656;37.422;2022-12-18T09:11:41;16.00;;;8.32;;
28802;SDS011;15949;55.656;37.422;2022-12-18T09:16:47;13.02;;;7.90;;
28802;SDS011;15949;55.656;37.422;2022-12-18T09:21:53;10.88;;;7.22;;
28802;SDS011;15949;55.656;37.422;2022-12-18T09:26:58;14.80;;;7.05;;
28802;SDS011;15949;55.656;37.422;2022-12-18T09:32:04;14.13;;;7.43;;
28802;SDS011;15949;55.656;37.422;2022-12-18T09:37:10;14.27;;;7.70;;
28802;SDS011;15949;55.656;37.422;2022-12-18T09:42:18;13.85;;;7.55;;
28802;SDS011;15949;55.656;37.422;2022-12-18T09:47:30;10.57;;;7.35;;
28802;SDS011;15949;55.656;37.422;2022-12-18T09:52:42;11.88;;;6.63;;
28802;SDS011;15949;55.656;37.422;2022-12-18T09:57:52;14.40;;;6.93;;
28802;SDS011;15949;55.656;37.422;2022-12-18T10:03:09;12.82;;;7.25;;
28802;SDS011;15949;55.656;37.422;2022-12-18T10:08:30;21.60;;;8.40;;
28802;SDS011;15949;55.656;37.422;2022-12-18T10:13:57;13.77;;;7.23;;
28802;SDS011;15949;55.656;37.422;2022-12-18T10:19:31;13.80;;;7.45;;
28802;SDS011;15949;55.656;37.422;2022-12-18T10:30:17;13.18;;;7.22;;
28802;SDS011;15949;55.656;37.422;2022-12-18T10:35:25;13.45;;;6.78;;
28802;SDS011;15949;55.656;37.422;2022-12-18T10:40:32;11.75;;;6.68;;
28802;SDS011;15949;55.656;37.422;2022-12-18T10:46:05;12.77;;;6.47;;
28802;SDS011;15949;55.656;37.422;2022-12-18T10:51:21;11.27;;;6.88;;
28802;SDS011;15949;55.656;37.422;2022-12-18T10:56:32;9.27;;;6.45;;
28802;SDS011;15949;55.656;37.422;2022-12-18T11:06:59;12.65;;;6.95;;
28802;SDS011;15949;55.656;37.422;2022-12-18T11:12:15;12.80;;;7.18;;
28802;SDS011;15949;55.656;37.422;2022-12-18T11:22:37;13.15;;;7.18;;
28802;SDS011;15949;55.656;37.422;2022-12-18T11:27:51;14.70;;;7.65;;
28802;SDS011;15949;55.656;37.422;2022-12-18T11:48:58;11.65;;;6.80;;
28802;SDS011;15949;55.656;37.422;2022-12-18T11:54:12;9.82;;;6.53;;
28802;SDS011;15949;55.656;37.422;2022-12-18T12:31:23;11.73;;;5.32;;
28802;SDS011;15949;55.656;37.422;2022-12-18T12:42:15;9.77;;;5.28;;
28802;SDS011;15949;55.656;37.422;2022-12-18T12:47:43;12.55;;;5.75;;
28802;SDS011;15949;55.656;37.422;2022-12-18T12:52:54;10.30;;;4.97;;
28802;SDS011;15949;55.656;37.422;2022-12-18T13:03:14;12.82;;;5.57;;
28802;SDS011;15949;55.656;37.422;2022-12-18T13:08:30;17.05;;;5.65;;
28802;SDS011;15949;55.656;37.422;2022-12-18T13:13:55;16.20;;;6.20;;
28802;SDS011;15949;55.656;37.422;2022-12-18T13:19:01;16.52;;;8.10;;
28802;SDS011;15949;55.656;37.422;2022-12-18T13:24:15;16.52;;;7.68;;
28802;SDS011;15949;55.656;37.422;2022-12-18T13:29:41;18.85;;;8.90;;
28802;SDS011;15949;55.656;37.422;2022-12-18T13:46:02;21.70;;;10.32;;
28802;SDS011;15949;55.656;37.422;2022-12-18T13:51:10;23.80;;;10.00;;
28802;SDS011;15949;55.656;37.422;2022-12-18T13:56:22;22.52;;;10.25;;
28802;SDS011;15949;55.656;37.422;2022-12-18T14:01:30;26.30;;;12.07;;
28802;SDS011;15949;55.656;37.422;2022-12-18T14:06:36;25.58;;;11.15;;
28802;SDS011;15949;55.656;37.422;2022-12-18T14:11:45;22.75;;;9.93;;
28802;SDS011;15949;55.656;37.422;2022-12-18T14:16:52;19.58;;;9.57;;
28802;SDS011;15949;55.656;37.422;2022-12-18T14:21:57;20.42;;;9.70;;
28802;SDS011;15949;55.656;37.422;2022-12-18T14:27:17;15.52;;;8.98;;
28802;SDS011;15949;55.656;37.422;2022-12-18T14:32:27;17.05;;;9.35;;
28802;SDS011;15949;55.656;37.422;2022-12-18T14:37:32;19.85;;;8.80;;
28802;SDS011;15949;55.656;37.422;2022-12-18T14:42:38;14.27;;;7.95;;
28802;SDS011;15949;55.656;37.422;2022-12-18T14:47:43;13.82;;;6.85;;
28802;SDS011;15949;55.656;37.422;2022-12-18T14:52:49;16.00;;;7.57;;
28802;SDS011;15949;55.656;37.422;2022-12-18T14:57:55;12.98;;;7.07;;
28802;SDS011;15949;55.656;37.422;2022-12-18T15:03:02;11.20;;;6.70;;
28802;SDS011;15949;55.656;37.422;2022-12-18T15:08:30;14.30;;;7.18;;
28802;SDS011;15949;55.656;37.422;2022-12-18T15:13:40;15.68;;;8.57;;
28802;SDS011;15949;55.656;37.422;2022-12-18T15:18:46;10.98;;;6.20;;
28802;SDS011;15949;55.656;37.422;2022-12-18T15:23:53;12.70;;;7.35;;
28802;SDS011;15949;55.656;37.422;2022-12-18T15:28:58;12.30;;;7.13;;
28802;SDS011;15949;55.656;37.422;2022-12-18T15:34:09;9.52;;;6.15;;
28802;SDS011;15949;55.656;37.422;2022-12-18T15:39:24;16.77;;;7.18;;
28802;SDS011;15949;55.656;37.422;2022-12-18T15:44:30;12.63;;;7.28;;
28802;SDS011;15949;55.656;37.422;2022-12-18T15:49:35;11.95;;;6.75;;
28802;SDS011;15949;55.656;37.422;2022-12-18T15:54:41;10.70;;;7.45;;
28802;SDS011;15949;55.656;37.422;2022-12-18T16:00:11;10.95;;;7.25;;
28802;SDS011;15949;55.656;37.422;2022-12-18T16:05:18;11.25;;;6.35;;
28802;SDS011;15949;55.656;37.422;2022-12-18T16:10:25;11.80;;;7.10;;
28802;SDS011;15949;55.656;37.422;2022-12-18T16:15:31;11.23;;;6.60;;
28802;SDS011;15949;55.656;37.422;2022-12-18T16:20:37;12.05;;;6.72;;
28802;SDS011;15949;55.656;37.422;2022-12-18T16:25:43;11.02;;;6.35;;
28802;SDS011;15949;55.656;37.422;2022-12-18T16:30:49;10.40;;;6.07;;
28802;SDS011;15949;55.656;37.422;2022-12-18T16:35:54;11.48;;;6.65;;
28802;SDS011;15949;55.656;37.422;2022-12-18T16:41:00;11.20;;;6.85;;
28802;SDS011;15949;55.656;37.422;2022-12-18T16:46:24;14.30;;;7.30;;
28802;SDS011;15949;55.656;37.422;2022-12-18T16:51:29;11.95;;;6.40;;
28802;SDS011;15949;55.656;37.422;2022-12-18T16:56:35;15.15;;;7.32;;
28802;SDS011;15949;55.656;37.422;2022-12-18T17:01:41;12.93;;;7.80;;
28802;SDS011;15949;55.656;37.422;2022-12-18T17:06:47;13.88;;;7.90;;
28802;SDS011;15949;55.656;37.422;2022-12-18T17:12:01;13.95;;;7.68;;
28802;SDS011;15949;55.656;37.422;2022-12-18T17:17:07;10.52;;;6.18;;
28802;SDS011;15949;55.656;37.422;2022-12-18T17:22:13;22.42;;;8.82;;
28802;SDS011;15949;55.656;37.422;2022-12-18T17:27:18;19.63;;;9.18;;
28802;SDS011;15949;55.656;37.422;2022-12-18T17:32:24;19.48;;;9.85;;
28802;SDS011;15949;55.656;37.422;2022-12-18T17:37:30;17.10;;;9.30;;
28802;SDS011;15949;55.656;37.422;2022-12-18T17:42:35;19.55;;;8.68;;
28802;SDS011;15949;55.656;37.422;2022-12-18T17:47:41;14.73;;;8.90;;
28802;SDS011;15949;55.656;37.422;2022-12-18T17:52:47;16.70;;;9.10;;
28802;SDS011;15949;55.656;37.422;2022-12-18T17:57:53;17.77;;;9.27;;
28802;SDS011;15949;55.656;37.422;2022-12-18T18:02:59;15.05;;;8.23;;
28802;SDS011;15949;55.656;37.422;2022-12-18T18:08:05;15.30;;;7.85;;
28802;SDS011;15949;55.656;37.422;2022-12-18T18:13:21;16.08;;;7.97;;
28802;SDS011;15949;55.656;37.422;2022-12-18T18:18:47;16.45;;;8.35;;
28802;SDS011;15949;55.656;37.422;2022-12-18T18:23:52;20.95;;;9.30;;
28802;SDS011;15949;55.656;37.422;2022-12-18T18:28:59;17.63;;;8.95;;
28802;SDS011;15949;55.656;37.422;2022-12-18T18:34:05;17.60;;;8.25;;
28802;SDS011;15949;55.656;37.422;2022-12-18T18:39:11;22.02;;;9.10;;
28802;SDS011;15949;55.656;37.422;2022-12-18T18:44:18;22.13;;;9.48;;
28802;SDS011;15949;55.656;37.422;2022-12-18T18:49:25;25.23;;;10.75;;
28802;SDS011;15949;55.656;37.422;2022-12-18T18:54:31;25.17;;;10.30;;
28802;SDS011;15949;55.656;37.422;2022-12-18T18:59:37;24.27;;;11.00;;
28802;SDS011;15949;55.656;37.422;2022-12-18T19:04:42;21.35;;;9.88;;
28802;SDS011;15949;55.656;37.422;2022-12-18T19:09:48;23.77;;;10.43;;
28802;SDS011;15949;55.656;37.422;2022-12-18T19:14:56;25.45;;;11.35;;
28802;SDS011;15949;55.656;37.422;2022-12-18T19:20:02;26.88;;;11.85;;
28802;SDS011;15949;55.656;37.422;2022-12-18T19:25:08;28.10;;;11.50;;
28802;SDS011;15949;55.656;37.422;2022-12-18T19:30:14;30.15;;;11.63;;
28802;SDS011;15949;55.656;37.422;2022-12-18T19:35:21;29.30;;;13.35;;
28802;SDS011;15949;55.656;37.422;2022-12-18T19:40:26;31.33;;;12.68;;
28802;SDS011;15949;55.656;37.422;2022-12-18T19:45:32;26.08;;;9.25;;
28802;SDS011;15949;55.656;37.422;2022-12-18T19:50:40;27.15;;;11.18;;
28802;SDS011;15949;55.656;37.422;2022-12-18T19:55:46;34.08;;;13.00;;
28802;SDS011;15949;55.656;37.422;2022-12-18T20:00:52;32.60;;;11.55;;
28802;SDS011;15949;55.656;37.422;2022-12-18T20:11:35;34.08;;;13.43;;
28802;SDS011;15949;55.656;37.422;2022-12-18T20:16:41;39.22;;;14.57;;
28802;SDS011;15949;55.656;37.422;2022-12-18T20:21:46;37.10;;;13.07;;
28802;SDS011;15949;55.656;37.422;2022-12-18T20:26:52;34.72;;;14.98;;
28802;SDS011;15949;55.656;37.422;2022-12-18T20:31:58;38.60;;;14.80;;
28802;SDS011;15949;55.656;37.422;2022-12-18T20:37:04;40.17;;;13.90;;
28802;SDS011;15949;55.656;37.422;2022-12-18T20:42:10;33.92;;;14.13;;
28802;SDS011;15949;55.656;37.422;2022-12-18T20:47:15;34.15;;;11.02;;
28802;SDS011;15949;55.656;37.422;2022-12-18T20:52:21;21.77;;;9.73;;
28802;SDS011;15949;55.656;37.422;2022-12-18T20:57:26;31.83;;;13.52;;
28802;SDS011;15949;55.656;37.422;2022-12-18T21:02:32;28.58;;;11.85;;
28802;SDS011;15949;55.656;37.422;2022-12-18T21:07:38;28.27;;;11.93;;
28802;SDS011;15949;55.656;37.422;2022-12-18T21:12:43;18.70;;;9.68;;
28802;SDS011;15949;55.656;37.422;2022-12-18T21:17:53;25.23;;;10.77;;
28802;SDS011;15949;55.656;37.422;2022-12-18T21:22:58;21.50;;;9.35;;
28802;SDS011;15949;55.656;37.422;2022-12-18T21:28:06;25.67;;;10.95;;
28802;SDS011;15949;55.656;37.422;2022-12-18T21:33:12;21.30;;;8.95;;
28802;SDS011;15949;55.656;37.422;2022-12-18T21:38:17;21.05;;;9.38;;
28802;SDS011;15949;55.656;37.422;2022-12-18T21:43:23;26.20;;;10.02;;
28802;SDS011;15949;55.656;37.422;2022-12-18T21:48:47;19.50;;;9.70;;
28802;SDS011;15949;55.656;37.422;2022-12-18T21:53:52;13.48;;;6.45;;
28802;SDS011;15949;55.656;37.422;2022-12-18T21:58:58;18.63;;;8.50;;
28802;SDS011;15949;55.656;37.422;2022-12-18T22:04:03;14.57;;;7.70;;
28802;SDS011;15949;55.656;37.422;2022-12-18T22:09:10;15.77;;;8.18;;
28802;SDS011;15949;55.656;37.422;2022-12-18T22:14:18;12.35;;;6.57;;
28802;SDS011;15949;55.656;37.422;2022-12-18T22:19:24;14.93;;;6.00;;
28802;SDS011;15949;55.656;37.422;2022-12-18T22:24:30;12.73;;;6.25;;
28802;SDS011;15949;55.656;37.422;2022-12-18T22:29:35;12.43;;;6.28;;
28802;SDS011;15949;55.656;37.422;2022-12-18T22:35:00;12.93;;;6.28;;
28802;SDS011;15949;55.656;37.422;2022-12-18T22:40:08;12.73;;;5.65;;
28802;SDS011;15949;55.656;37.422;2022-12-18T22:45:21;10.20;;;5.53;;
28802;SDS011;15949;55.656;37.422;2022-12-18T22:50:28;11.68;;;6.18;;
28802;SDS011;15949;55.656;37.422;2022-12-18T22:55:34;10.43;;;5.03;;
28802;SDS011;15949;55.656;37.422;2022-12-18T23:00:39;13.43;;;7.25;;
28802;SDS011;15949;55.656;37.422;2022-12-18T23:05:45;12.80;;;7.18;;
28802;SDS011;15949;55.656;37.422;2022-12-18T23:10:52;12.80;;;7.00;;
28802;SDS011;15949;55.656;37.422;2022-12-18T23:15:58;14.88;;;7.28;;
28802;SDS011;15949;55.656;37.422;2022-12-18T23:21:04;15.85;;;6.47;;
28802;SDS011;15949;55.656;37.422;2022-12-18T23:26:12;15.25;;;6.95;;
28802;SDS011;15949;55.656;37.422;2022-12-18T23:36:38;13.02;;;4.88;;
28802;SDS011;15949;55.656;37.422;2022-12-18T23:41:44;10.82;;;5.82;;
28802;SDS011;15949;55.656;37.422;2022-12-18T23:46:50;8.73;;;5.00;;
28802;SDS011;15949;55.656;37.422;2022-12-18T23:51:56;7.40;;;4.40;;
28802;SDS011;15949;55.656;37.422;2022-12-18T23:57:01;9.80;;;5.45;;
